Time;durP1;ratioP1;P1;durP2;ratioP2;P2;SDS_P1;SDS_P2;PMS_P1;PMS_P2;Temp;Humidity;BMP_temperature;BMP_pressure;BME280_temperature;BME280_humidity;BME280_pressure;Samples;Min_cycle;Max_cycle;Signal;HPM_P1;HPM_P2
2021/10/16 00:02:30;;;;;;;11.02;5.10;;;;;;;;;;10389324;28;20042;-70
2021/10/16 00:07:34;;;;;;;10.70;4.60;;;;;;;;;;10386941;28;20037;-68
2021/10/16 00:12:37;;;;;;;11.88;4.57;;;;;;;;;;10391751;28;20042;-70
2021/10/16 00:17:40;;;;;;;9.95;4.68;;;;;;;;;;10379740;28;20084;-69
2021/10/16 00:22:44;;;;;;;11.45;5.38;;;;;;;;;;10383190;28;20052;-69
2021/10/16 00:27:47;;;;;;;10.40;4.97;;;;;;;;;;10396022;28;20061;-69
2021/10/16 00:32:50;;;;;;;9.10;4.47;;;;;;;;;;10387104;28;20066;-70
2021/10/16 00:37:54;;;;;;;9.52;4.53;;;;;;;;;;10392364;28;20045;-68
2021/10/16 00:43:00;;;;;;;10.95;4.63;;;;;;;;;;10391087;28;20049;-69
2021/10/16 00:48:03;;;;;;;10.57;4.82;;;;;;;;;;10377875;28;20037;-69
2021/10/16 00:53:07;;;;;;;10.85;4.93;;;;;;;;;;10386187;28;20094;-67
2021/10/16 00:58:11;;;;;;;12.50;4.70;;;;;;;;;;10384835;28;20057;-69
2021/10/16 01:03:14;;;;;;;13.60;5.55;;;;;;;;;;10387951;28;20045;-69
2021/10/16 01:08:19;;;;;;;13.02;5.82;;;;;;;;;;10382709;28;20042;-68
2021/10/16 01:13:42;;;;;;;14.80;6.22;;;;;;;;;;10388144;28;20053;-69
2021/10/16 01:18:45;;;;;;;;;;;;;;;;;;10393685;28;20538;-69
2021/10/16 01:24:00;;;;;;;;;;;;;;;;;;10398195;28;20020;-66
2021/10/16 01:29:25;;;;;;;12.32;5.47;;;;;;;;;;10394568;28;19939;-67
2021/10/16 01:34:38;;;;;;;15.05;6.05;;;;;;;;;;10392235;28;20038;-69
2021/10/16 01:40:01;;;;;;;14.05;6.38;;;;;;;;;;10398607;28;20144;-68
2021/10/16 01:45:05;;;;;;;15.48;6.90;;;;;;;;;;10395494;28;20516;-67
2021/10/16 01:50:08;;;;;;;16.05;6.57;;;;;;;;;;10395174;28;20117;-69
2021/10/16 01:55:11;;;;;;;17.10;6.33;;;;;;;;;;10391173;28;20042;-70
2021/10/16 02:00:16;;;;;;;14.52;6.25;;;;;;;;;;10391636;28;20037;-68
2021/10/16 02:05:19;;;;;;;15.65;6.28;;;;;;;;;;10389963;28;20107;-70
2021/10/16 02:10:22;;;;;;;12.73;6.10;;;;;;;;;;10399825;28;20068;-70
2021/10/16 02:15:26;;;;;;;15.63;6.53;;;;;;;;;;10396098;28;20429;-68
2021/10/16 02:20:29;;;;;;;12.90;6.47;;;;;;;;;;10397626;28;20097;-69
2021/10/16 02:25:32;;;;;;;16.10;6.90;;;;;;;;;;10399088;28;20133;-69
2021/10/16 02:30:36;;;;;;;15.35;5.97;;;;;;;;;;10393364;28;20099;-69
2021/10/16 02:35:39;;;;;;;16.02;6.80;;;;;;;;;;10387442;28;20051;-69
2021/10/16 02:40:42;;;;;;;16.30;6.85;;;;;;;;;;10391078;28;20049;-68
2021/10/16 02:45:46;;;;;;;15.77;6.38;;;;;;;;;;10392516;28;20048;-71
2021/10/16 02:50:49;;;;;;;13.95;6.40;;;;;;;;;;10390166;28;20040;-69
2021/10/16 02:55:52;;;;;;;14.90;6.15;;;;;;;;;;10390921;28;20103;-70
2021/10/16 03:00:56;;;;;;;13.45;6.03;;;;;;;;;;10386568;28;20068;-67
2021/10/16 03:05:59;;;;;;;14.80;6.10;;;;;;;;;;10397085;28;20049;-71
2021/10/16 03:11:02;;;;;;;14.07;5.93;;;;;;;;;;10388848;28;20053;-70
2021/10/16 03:16:06;;;;;;;18.67;5.85;;;;;;;;;;10392219;28;20068;-72
2021/10/16 03:21:09;;;;;;;13.02;6.00;;;;;;;;;;10392059;28;20061;-68
2021/10/16 03:26:12;;;;;;;16.48;7.00;;;;;;;;;;10387985;28;20041;-71
2021/10/16 03:31:16;;;;;;;14.93;6.45;;;;;;;;;;10391177;28;20050;-68
2021/10/16 03:36:19;;;;;;;12.60;6.45;;;;;;;;;;10393111;28;20068;-68
2021/10/16 03:41:22;;;;;;;16.23;6.82;;;;;;;;;;10392992;28;20080;-67
2021/10/16 03:46:26;;;;;;;14.43;6.57;;;;;;;;;;10385548;28;20492;-69
2021/10/16 03:51:29;;;;;;;15.82;6.38;;;;;;;;;;10390761;28;20045;-69
2021/10/16 03:56:32;;;;;;;12.70;5.82;;;;;;;;;;10390604;28;20052;-68
2021/10/16 04:01:39;;;;;;;13.48;6.00;;;;;;;;;;10388098;28;20049;-69
2021/10/16 04:06:42;;;;;;;15.10;6.75;;;;;;;;;;10384277;28;20042;-69
2021/10/16 04:11:45;;;;;;;14.38;6.10;;;;;;;;;;10390596;28;22172;-69
2021/10/16 04:16:49;;;;;;;16.27;6.65;;;;;;;;;;10389534;28;20478;-70
2021/10/16 04:21:52;;;;;;;19.00;7.63;;;;;;;;;;10388037;28;20062;-71
2021/10/16 04:26:54;;;;;;;17.42;6.80;;;;;;;;;;10385478;28;20137;-70
2021/10/16 04:31:59;;;;;;;18.55;7.53;;;;;;;;;;10385612;28;20080;-70
2021/10/16 04:37:01;;;;;;;;;;;;;;;;;;10386654;28;20073;-70
2021/10/16 04:42:05;;;;;;;17.42;7.53;;;;;;;;;;10395997;28;20028;-69
2021/10/16 04:47:09;;;;;;;22.85;7.93;;;;;;;;;;10388355;28;20034;-70
2021/10/16 04:52:13;;;;;;;17.80;7.78;;;;;;;;;;10386004;28;20064;-69
2021/10/16 04:57:16;;;;;;;22.52;8.32;;;;;;;;;;10389100;28;20045;-67
2021/10/16 05:02:20;;;;;;;19.10;8.27;;;;;;;;;;10396513;28;20072;-69
2021/10/16 05:07:23;;;;;;;19.95;8.35;;;;;;;;;;10396109;28;20037;-68
2021/10/16 05:12:25;;;;;;;23.10;8.00;;;;;;;;;;10392730;28;20124;-68
2021/10/16 05:17:30;;;;;;;19.50;8.35;;;;;;;;;;10393921;28;20502;-68
2021/10/16 05:22:33;;;;;;;21.48;8.18;;;;;;;;;;10397101;28;20486;-69
2021/10/16 05:27:36;;;;;;;22.38;8.00;;;;;;;;;;10397311;28;20502;-69
2021/10/16 05:32:40;;;;;;;19.70;8.23;;;;;;;;;;10392034;28;20045;-69
2021/10/16 05:37:43;;;;;;;19.45;7.53;;;;;;;;;;10394903;28;20064;-67
2021/10/16 05:42:46;;;;;;;18.50;7.97;;;;;;;;;;10404540;28;20037;-70
2021/10/16 05:47:50;;;;;;;22.52;9.18;;;;;;;;;;10398177;28;20449;-69
2021/10/16 05:52:53;;;;;;;27.85;8.88;;;;;;;;;;10391666;28;20191;-68
2021/10/16 05:57:56;;;;;;;22.52;9.50;;;;;;;;;;10392594;28;20132;-69
2021/10/16 06:03:00;;;;;;;20.45;8.65;;;;;;;;;;10396070;28;20850;-68
2021/10/16 06:08:04;;;;;;;18.70;8.05;;;;;;;;;;10394203;28;20065;-68
2021/10/16 06:13:07;;;;;;;19.90;8.13;;;;;;;;;;10390144;28;20080;-68
2021/10/16 06:18:12;;;;;;;21.20;8.48;;;;;;;;;;10391422;28;20041;-70
2021/10/16 06:23:15;;;;;;;20.40;8.45;;;;;;;;;;10398236;28;20481;-68
2021/10/16 06:28:18;;;;;;;18.02;8.60;;;;;;;;;;10397632;28;20038;-66
2021/10/16 06:33:24;;;;;;;19.20;8.90;;;;;;;;;;10398908;28;20050;-70
2021/10/16 06:38:27;;;;;;;18.23;8.75;;;;;;;;;;10396397;28;20501;-68
2021/10/16 06:43:30;;;;;;;21.07;9.40;;;;;;;;;;10401807;28;20099;-69
2021/10/16 06:48:34;;;;;;;22.33;10.03;;;;;;;;;;10393991;28;20034;-71
2021/10/16 06:53:38;;;;;;;21.38;10.43;;;;;;;;;;10388733;28;20430;-71
2021/10/16 06:58:41;;;;;;;22.20;9.57;;;;;;;;;;10390258;28;20050;-72
2021/10/16 07:03:46;;;;;;;20.17;8.98;;;;;;;;;;10389982;28;20045;-71
2021/10/16 07:08:49;;;;;;;22.23;9.38;;;;;;;;;;10386759;28;20414;-72
2021/10/16 07:13:51;;;;;;;19.38;9.43;;;;;;;;;;10391721;28;20065;-72
2021/10/16 07:18:56;;;;;;;19.05;10.05;;;;;;;;;;10391636;28;20042;-71
2021/10/16 07:23:58;;;;;;;19.23;9.10;;;;;;;;;;10390687;28;20072;-72
2021/10/16 07:29:01;;;;;;;16.50;9.55;;;;;;;;;;10397159;28;20041;-71
2021/10/16 07:34:05;;;;;;;16.38;10.40;;;;;;;;;;10398223;28;20042;-72
2021/10/16 07:39:09;;;;;;;17.45;10.02;;;;;;;;;;10396392;28;20069;-72
2021/10/16 07:44:12;;;;;;;17.75;9.93;;;;;;;;;;10399575;28;20512;-73
2021/10/16 07:49:16;;;;;;;18.40;9.35;;;;;;;;;;10391203;28;20045;-73
2021/10/16 07:54:19;;;;;;;15.23;9.60;;;;;;;;;;10394328;28;20068;-72
2021/10/16 07:59:22;;;;;;;16.20;10.10;;;;;;;;;;10395254;28;20167;-73
2021/10/16 08:04:26;;;;;;;20.50;11.00;;;;;;;;;;10390259;28;20057;-72
2021/10/16 08:09:29;;;;;;;17.73;10.38;;;;;;;;;;10387608;28;20101;-73
2021/10/16 08:14:32;;;;;;;16.75;10.27;;;;;;;;;;10392044;28;20076;-73
2021/10/16 08:19:36;;;;;;;16.95;10.00;;;;;;;;;;10385523;28;20038;-73
2021/10/16 08:24:39;;;;;;;16.27;10.82;;;;;;;;;;10392238;28;20049;-72
2021/10/16 08:29:42;;;;;;;16.45;10.65;;;;;;;;;;10393487;28;20468;-72
2021/10/16 08:34:46;;;;;;;21.27;14.73;;;;;;;;;;10392143;28;20049;-71
2021/10/16 08:39:49;;;;;;;16.83;10.32;;;;;;;;;;10388349;28;20491;-72
2021/10/16 08:44:58;;;;;;;16.30;11.00;;;;;;;;;;10391180;28;20141;-69
2021/10/16 08:50:04;;;;;;;18.60;10.95;;;;;;;;;;10386795;28;20049;-70
2021/10/16 08:55:08;;;;;;;20.60;10.57;;;;;;;;;;10390286;28;20123;-71
2021/10/16 09:00:29;;;;;;;15.93;10.27;;;;;;;;;;10393901;28;20037;-72
2021/10/16 09:05:34;;;;;;;17.45;10.63;;;;;;;;;;10391745;28;20489;-72
2021/10/16 09:10:36;;;;;;;15.77;10.13;;;;;;;;;;10383348;28;20047;-71
2021/10/16 09:15:39;;;;;;;19.05;10.77;;;;;;;;;;10392386;28;20038;-72
2021/10/16 09:20:43;;;;;;;19.65;9.52;;;;;;;;;;10391826;28;20048;-71
2021/10/16 09:25:56;;;;;;;14.48;9.75;;;;;;;;;;10395296;28;20053;-72
2021/10/16 09:31:09;;;;;;;16.58;9.85;;;;;;;;;;10393215;28;20069;-71
2021/10/16 09:36:22;;;;;;;15.20;10.07;;;;;;;;;;10381373;28;20482;-73
2021/10/16 09:41:26;;;;;;;24.20;14.52;;;;;;;;;;10386396;28;20073;-73
2021/10/16 09:46:29;;;;;;;18.40;11.52;;;;;;;;;;10387498;28;20076;-67
2021/10/16 09:51:33;;;;;;;12.52;9.15;;;;;;;;;;10393268;28;20037;-67
2021/10/16 09:56:37;;;;;;;14.35;8.63;;;;;;;;;;10398079;28;20068;-69
2021/10/16 10:01:39;;;;;;;14.95;8.60;;;;;;;;;;10400088;28;20431;-70
2021/10/16 10:06:45;;;;;;;13.68;8.43;;;;;;;;;;10394144;28;20466;-68
2021/10/16 10:11:53;;;;;;;14.55;8.05;;;;;;;;;;10397033;28;20128;-67
2021/10/16 10:16:58;;;;;;;11.65;7.82;;;;;;;;;;10397648;28;20037;-69
2021/10/16 10:22:02;;;;;;;11.73;7.97;;;;;;;;;;10401807;28;20141;-69
2021/10/16 10:27:06;;;;;;;11.60;6.60;;;;;;;;;;10395758;28;20048;-68
2021/10/16 10:32:16;;;;;;;10.45;6.78;;;;;;;;;;10390858;28;20071;-67
2021/10/16 10:37:39;;;;;;;12.10;6.90;;;;;;;;;;10393860;28;20042;-68
2021/10/16 10:43:02;;;;;;;9.43;5.88;;;;;;;;;;10399054;28;20046;-68
2021/10/16 10:48:41;;;;;;;7.88;5.25;;;;;;;;;;10388788;28;20419;-70
2021/10/16 10:54:16;;;;;;;10.30;5.85;;;;;;;;;;10390807;28;20045;-69
2021/10/16 10:59:53;;;;;;;10.30;7.05;;;;;;;;;;10387614;28;20038;-69
2021/10/16 11:05:32;;;;;;;11.27;6.95;;;;;;;;;;10384994;28;20100;-69
2021/10/16 11:10:37;;;;;;;12.30;7.32;;;;;;;;;;10385838;28;20092;-68
2021/10/16 11:15:39;;;;;;;11.45;7.35;;;;;;;;;;10395325;28;20524;-69
2021/10/16 11:20:46;;;;;;;12.25;7.03;;;;;;;;;;10387062;28;20422;-69
2021/10/16 11:25:58;;;;;;;10.18;6.07;;;;;;;;;;10399064;28;20042;-69
2021/10/16 11:31:00;;;;;;;11.07;6.97;;;;;;;;;;10391810;28;20070;-68
2021/10/16 11:36:04;;;;;;;10.07;5.93;;;;;;;;;;10389312;28;20064;-68
2021/10/16 11:41:10;;;;;;;10.77;6.45;;;;;;;;;;10386763;28;20148;-69
2021/10/16 11:46:16;;;;;;;10.13;6.80;;;;;;;;;;10393752;28;20041;-69
2021/10/16 11:51:19;;;;;;;10.65;6.55;;;;;;;;;;10391523;28;20117;-72
2021/10/16 11:56:25;;;;;;;8.30;5.35;;;;;;;;;;10392981;28;20124;-68
2021/10/16 12:01:30;;;;;;;9.93;6.45;;;;;;;;;;10390674;28;20514;-69
2021/10/16 12:06:33;;;;;;;10.35;6.82;;;;;;;;;;10386791;28;20116;-69
2021/10/16 12:11:38;;;;;;;8.00;5.07;;;;;;;;;;10382946;28;20416;-68
2021/10/16 12:16:41;;;;;;;6.70;4.70;;;;;;;;;;10392108;28;20078;-68
2021/10/16 12:21:45;;;;;;;7.07;5.00;;;;;;;;;;10391745;28;20383;-69
2021/10/16 12:26:50;;;;;;;6.72;5.32;;;;;;;;;;10392880;28;20045;-70
2021/10/16 12:31:53;;;;;;;6.40;4.90;;;;;;;;;;10393129;28;20042;-69
2021/10/16 12:36:56;;;;;;;6.90;4.47;;;;;;;;;;10386590;28;20415;-70
2021/10/16 12:42:07;;;;;;;7.60;4.90;;;;;;;;;;10398047;28;20099;-70
2021/10/16 12:47:11;;;;;;;7.95;5.07;;;;;;;;;;10392581;28;20116;-69
2021/10/16 12:52:30;;;;;;;6.05;4.57;;;;;;;;;;10387807;28;20034;-70
2021/10/16 12:57:34;;;;;;;5.85;3.58;;;;;;;;;;10388172;28;20117;-67
2021/10/16 13:02:39;;;;;;;7.10;4.60;;;;;;;;;;10388009;28;20045;-67
2021/10/16 13:07:42;;;;;;;7.88;5.15;;;;;;;;;;10387441;28;20063;-67
2021/10/16 13:12:47;;;;;;;8.73;4.07;;;;;;;;;;10388406;28;20053;-70
2021/10/16 13:17:49;;;;;;;7.05;4.00;;;;;;;;;;10380426;28;20068;-71
2021/10/16 13:22:52;;;;;;;6.80;3.97;;;;;;;;;;10401889;28;20414;-69
2021/10/16 13:27:56;;;;;;;6.72;3.88;;;;;;;;;;10399991;28;20048;-70
2021/10/16 13:32:59;;;;;;;6.45;3.35;;;;;;;;;;10395591;28;20064;-68
2021/10/16 13:38:02;;;;;;;5.63;3.90;;;;;;;;;;10399225;28;20195;-70
2021/10/16 13:43:08;;;;;;;5.40;3.28;;;;;;;;;;10394462;28;20079;-68
2021/10/16 13:48:11;;;;;;;6.82;3.83;;;;;;;;;;10394618;28;20065;-69
2021/10/16 13:53:14;;;;;;;4.88;3.35;;;;;;;;;;10391590;28;20037;-69
2021/10/16 13:58:19;;;;;;;4.88;2.88;;;;;;;;;;10398684;28;20136;-66
2021/10/16 14:03:22;;;;;;;5.45;2.95;;;;;;;;;;10397048;28;20664;-69
2021/10/16 14:08:25;;;;;;;6.50;3.10;;;;;;;;;;10386560;28;20103;-69
2021/10/16 14:13:27;;;;;;;;;;;;;;;;;;10399724;28;20079;-70
2021/10/16 14:18:32;;;;;;;6.80;3.30;;;;;;;;;;10390097;28;19945;-68
2021/10/16 14:23:35;;;;;;;6.32;2.83;;;;;;;;;;10396252;28;20084;-70
2021/10/16 14:28:37;;;;;;;3.42;2.28;;;;;;;;;;10394373;28;20072;-68
2021/10/16 14:33:42;;;;;;;6.15;2.92;;;;;;;;;;10391589;28;20125;-68
2021/10/16 14:38:44;;;;;;;5.22;3.00;;;;;;;;;;10398916;28;20103;-68
2021/10/16 14:43:48;;;;;;;4.45;2.83;;;;;;;;;;10397891;28;20033;-68
2021/10/16 14:48:52;;;;;;;5.55;2.92;;;;;;;;;;10389699;28;20065;-69
2021/10/16 14:53:55;;;;;;;6.57;3.05;;;;;;;;;;10393458;28;20114;-68
2021/10/16 14:58:58;;;;;;;6.07;3.38;;;;;;;;;;10397437;28;20226;-68
2021/10/16 15:04:02;;;;;;;6.85;3.50;;;;;;;;;;10397765;28;20667;-70
2021/10/16 15:09:05;;;;;;;8.90;3.25;;;;;;;;;;10394679;28;20079;-67
2021/10/16 15:14:08;;;;;;;7.60;3.05;;;;;;;;;;10399365;28;20100;-69
2021/10/16 15:19:13;;;;;;;7.10;3.57;;;;;;;;;;10383862;28;20136;-69
2021/10/16 15:24:15;;;;;;;7.20;3.10;;;;;;;;;;10387796;28;20305;-68
2021/10/16 15:29:19;;;;;;;6.65;3.60;;;;;;;;;;10391872;28;20121;-68
2021/10/16 15:34:23;;;;;;;7.22;3.65;;;;;;;;;;10396204;28;20128;-68
2021/10/16 15:39:26;;;;;;;5.55;3.10;;;;;;;;;;10391251;28;20045;-66
2021/10/16 15:44:29;;;;;;;6.53;3.47;;;;;;;;;;10389555;28;20079;-68
2021/10/16 15:49:33;;;;;;;9.55;3.40;;;;;;;;;;10386255;28;20033;-69
2021/10/16 15:54:36;;;;;;;5.95;2.90;;;;;;;;;;10396705;28;20052;-68
2021/10/16 15:59:39;;;;;;;7.07;3.20;;;;;;;;;;10389025;28;20172;-69
2021/10/16 16:04:43;;;;;;;6.03;3.27;;;;;;;;;;10384519;28;20849;-68
2021/10/16 16:09:46;;;;;;;5.85;3.33;;;;;;;;;;10387948;28;20052;-69
2021/10/16 16:14:48;;;;;;;7.18;3.53;;;;;;;;;;10394731;28;20068;-68
2021/10/16 16:19:53;;;;;;;6.97;3.22;;;;;;;;;;10391728;28;20048;-67
2021/10/16 16:24:56;;;;;;;7.07;3.40;;;;;;;;;;10395118;28;20037;-67
2021/10/16 16:29:59;;;;;;;7.95;3.67;;;;;;;;;;10396560;28;20080;-68
2021/10/16 16:35:04;;;;;;;7.45;3.60;;;;;;;;;;10380707;28;20458;-67
2021/10/16 16:40:07;;;;;;;8.43;3.75;;;;;;;;;;10392042;28;20057;-68
2021/10/16 16:45:10;;;;;;;10.20;4.35;;;;;;;;;;10393965;28;20072;-68
2021/10/16 16:50:15;;;;;;;8.13;4.05;;;;;;;;;;10389017;28;20512;-69
2021/10/16 16:55:18;;;;;;;7.75;4.10;;;;;;;;;;10390732;28;20045;-69
2021/10/16 17:00:20;;;;;;;9.13;4.03;;;;;;;;;;10391070;28;20124;-68
2021/10/16 17:05:25;;;;;;;10.47;4.73;;;;;;;;;;10396607;28;20532;-69
2021/10/16 17:10:28;;;;;;;10.32;4.30;;;;;;;;;;10392447;28;20069;-69
2021/10/16 17:15:31;;;;;;;18.67;6.40;;;;;;;;;;10398249;28;20069;-67
2021/10/16 17:20:35;;;;;;;12.23;6.03;;;;;;;;;;10395874;28;20116;-67
2021/10/16 17:25:38;;;;;;;10.90;4.97;;;;;;;;;;10398900;28;20045;-69
2021/10/16 17:30:40;;;;;;;9.35;4.55;;;;;;;;;;10399481;28;20072;-68
2021/10/16 17:35:45;;;;;;;14.65;5.95;;;;;;;;;;10395973;28;20511;-69
2021/10/16 17:40:49;;;;;;;18.73;6.97;;;;;;;;;;10394491;28;20120;-69
2021/10/16 17:45:52;;;;;;;;;;;;;;;;;;10386523;28;20065;-68
2021/10/16 17:50:56;;;;;;;12.07;5.57;;;;;;;;;;10396910;28;20020;-68
2021/10/16 17:55:59;;;;;;;13.27;5.72;;;;;;;;;;10390021;28;20068;-66
2021/10/16 18:01:02;;;;;;;16.40;7.00;;;;;;;;;;10388474;28;20128;-70
2021/10/16 18:06:07;;;;;;;17.20;7.53;;;;;;;;;;10393647;28;20414;-67
2021/10/16 18:11:09;;;;;;;17.38;6.63;;;;;;;;;;10392590;28;20100;-67
2021/10/16 18:16:13;;;;;;;12.60;5.93;;;;;;;;;;10393874;28;20041;-67
2021/10/16 18:21:17;;;;;;;15.77;7.10;;;;;;;;;;10392961;28;20049;-68
2021/10/16 18:26:20;;;;;;;19.65;7.90;;;;;;;;;;10394444;28;20072;-66
2021/10/16 18:31:23;;;;;;;33.20;12.73;;;;;;;;;;10399131;28;20033;-68
2021/10/16 18:36:27;;;;;;;16.10;7.20;;;;;;;;;;10386464;28;20090;-70
2021/10/16 18:41:30;;;;;;;17.08;7.40;;;;;;;;;;10393827;28;20108;-68
2021/10/16 18:46:33;;;;;;;17.85;7.18;;;;;;;;;;10402703;28;20034;-69
2021/10/16 18:51:38;;;;;;;19.63;6.80;;;;;;;;;;10402769;28;20730;-74
2021/10/16 18:56:40;;;;;;;17.88;8.00;;;;;;;;;;10403211;28;20079;-71
2021/10/16 19:01:43;;;;;;;14.73;7.40;;;;;;;;;;10404047;28;20037;-70
2021/10/16 19:06:48;;;;;;;19.33;7.63;;;;;;;;;;10394541;28;20029;-72
2021/10/16 19:11:51;;;;;;;19.17;8.48;;;;;;;;;;10396634;28;20060;-72
2021/10/16 19:16:54;;;;;;;26.63;11.90;;;;;;;;;;10404832;28;20052;-71
2021/10/16 19:21:58;;;;;;;20.60;9.23;;;;;;;;;;10401438;28;20036;-72
2021/10/16 19:27:01;;;;;;;24.20;11.02;;;;;;;;;;10399794;28;20100;-70
2021/10/16 19:32:04;;;;;;;22.48;9.18;;;;;;;;;;10398188;28;20113;-72
2021/10/16 19:37:09;;;;;;;18.33;8.50;;;;;;;;;;10391821;28;20045;-67
2021/10/16 19:42:12;;;;;;;18.38;8.85;;;;;;;;;;10397259;28;20549;-68
2021/10/16 19:47:15;;;;;;;22.52;8.75;;;;;;;;;;10385644;28;20068;-68
2021/10/16 19:52:19;;;;;;;20.48;8.43;;;;;;;;;;10397444;28;20554;-68
2021/10/16 19:57:22;;;;;;;20.05;8.65;;;;;;;;;;10397249;28;20056;-67
2021/10/16 20:02:27;;;;;;;22.80;9.60;;;;;;;;;;10384846;28;20065;-68
2021/10/16 20:07:31;;;;;;;19.08;8.80;;;;;;;;;;10393273;28;20100;-69
2021/10/16 20:12:34;;;;;;;22.15;9.25;;;;;;;;;;10392371;28;20045;-68
2021/10/16 20:17:37;;;;;;;21.02;9.23;;;;;;;;;;10391140;28;20061;-67
2021/10/16 20:22:41;;;;;;;23.00;9.27;;;;;;;;;;10391683;28;20116;-71
2021/10/16 20:27:45;;;;;;;20.67;9.18;;;;;;;;;;10389337;28;20038;-68
2021/10/16 20:32:48;;;;;;;25.30;10.15;;;;;;;;;;10391828;28;20072;-68
2021/10/16 20:37:52;;;;;;;19.73;9.20;;;;;;;;;;10391225;28;20489;-69
2021/10/16 20:42:55;;;;;;;19.13;8.63;;;;;;;;;;10395924;28;20049;-69
2021/10/16 20:47:58;;;;;;;19.70;8.90;;;;;;;;;;10392073;28;20069;-69
2021/10/16 20:53:02;;;;;;;22.98;9.18;;;;;;;;;;10396201;28;20084;-68
2021/10/16 20:58:05;;;;;;;17.58;8.35;;;;;;;;;;10393191;28;20433;-67
2021/10/16 21:03:08;;;;;;;21.27;8.60;;;;;;;;;;10391446;28;20053;-69
2021/10/16 21:08:12;;;;;;;20.85;8.93;;;;;;;;;;10389759;28;20115;-68
2021/10/16 21:13:15;;;;;;;;;;;;;;;;;;10388586;28;20108;-69
2021/10/16 21:18:17;;;;;;;18.77;8.85;;;;;;;;;;10386427;28;19953;-68
2021/10/16 21:23:22;;;;;;;21.88;9.63;;;;;;;;;;10390038;28;20417;-67
2021/10/16 21:28:25;;;;;;;;;;;;;;;;;;10386002;28;20074;-68
2021/10/16 21:33:28;;;;;;;23.67;8.57;;;;;;;;;;10391153;28;20412;-69
2021/10/16 21:38:33;;;;;;;19.33;9.15;;;;;;;;;;10389110;28;20069;-70
2021/10/16 21:43:36;;;;;;;26.65;9.68;;;;;;;;;;10395674;28;20103;-68
2021/10/16 21:48:38;;;;;;;24.23;9.60;;;;;;;;;;10394858;28;20265;-68
2021/10/16 21:53:43;;;;;;;26.00;10.75;;;;;;;;;;10395295;28;20049;-69
2021/10/16 21:58:46;;;;;;;27.00;10.20;;;;;;;;;;10387496;28;20072;-68
2021/10/16 22:03:48;;;;;;;23.35;9.95;;;;;;;;;;10386568;28;20034;-67
2021/10/16 22:08:53;;;;;;;22.00;9.43;;;;;;;;;;10391027;28;20052;-67
2021/10/16 22:13:56;;;;;;;22.85;11.02;;;;;;;;;;10390810;28;20046;-70
2021/10/16 22:18:59;;;;;;;22.88;9.98;;;;;;;;;;10392915;28;20563;-66
2021/10/16 22:24:03;;;;;;;24.35;10.25;;;;;;;;;;10391127;28;20497;-68
2021/10/16 22:29:05;;;;;;;;;;;;;;;;;;10392247;28;20132;-69
2021/10/16 22:34:08;;;;;;;22.13;9.70;;;;;;;;;;10387889;28;19921;-66
2021/10/16 22:39:12;;;;;;;22.25;9.43;;;;;;;;;;10393503;28;20042;-69
2021/10/16 22:44:17;;;;;;;20.92;9.20;;;;;;;;;;10396566;28;20034;-67
2021/10/16 22:49:20;;;;;;;23.08;9.77;;;;;;;;;;10399980;28;20053;-70
2021/10/16 22:54:25;;;;;;;23.67;9.60;;;;;;;;;;10392738;28;20046;-65
2021/10/16 22:59:29;;;;;;;;;;;;;;;;;;10395486;28;20068;-66
2021/10/16 23:04:32;;;;;;;21.65;9.50;;;;;;;;;;10391780;28;20456;-65
2021/10/16 23:09:36;;;;;;;22.27;9.23;;;;;;;;;;10387701;28;20598;-67
2021/10/16 23:14:38;;;;;;;;;;;;;;;;;;10389268;28;20049;-67
2021/10/16 23:19:41;;;;;;;24.17;8.55;;;;;;;;;;10397380;28;19921;-68
2021/10/16 23:24:46;;;;;;;25.13;9.47;;;;;;;;;;10381109;28;20458;-67
2021/10/16 23:29:48;;;;;;;;;;;;;;;;;;10386712;28;20064;-68
2021/10/16 23:34:51;;;;;;;24.98;9.63;;;;;;;;;;10400690;28;20436;-66
2021/10/16 23:39:56;;;;;;;24.37;9.80;;;;;;;;;;10389478;28;20112;-66
2021/10/16 23:44:59;;;;;;;22.33;9.75;;;;;;;;;;10392449;28;20300;-66
2021/10/16 23:50:02;;;;;;;20.63;9.52;;;;;;;;;;10396169;28;20219;-68
2021/10/16 23:55:07;;;;;;;22.77;9.37;;;;;;;;;;10395902;28;20163;-68
